Terminal Aerodrome Forecast
Issued by NWS Jackson, MS

Home | Current Version | Previous Version | Text Only | Print | Product List | Glossary On
Versions: 1 2 3 4 5 6 7 8 9 10 11 12 13
212
FTUS44 KMEG 270520
TAFTUP
TAF
KTUP 270520Z 2706/2806 00000KT P6SM SCT050 BKN250
      TEMPO 2709/2713 4SM BR SCT008
     FM271600 12005KT P6SM VCTS BKN035CB BKN250
     FM280300 07005KT P6SM VCSH SCT040 BKN250=

USA.gov is the U.S. government's official web portal to all federal, state and local government web resources and services.